Time;durP1;ratioP1;P1;durP2;ratioP2;P2;SDS_P1;SDS_P2;PMS_P1;PMS_P2;Temp;Humidity;BMP_temperature;BMP_pressure;BME280_temperature;BME280_humidity;BME280_pressure;Samples;Min_cycle;Max_cycle;Signal;HPM_P1;HPM_P2
2022/09/12 00:01:18;;;;;;;1.60;1.10;;;15.60;1.00;;;;;;5117671;28;20467;-71
2022/09/12 00:03:47;;;;;;;2.40;1.20;;;15.50;1.00;;;;;;5116717;28;20555;-70
2022/09/12 00:06:18;;;;;;;4.10;1.30;;;15.50;1.00;;;;;;5117562;28;20497;-71
2022/09/12 00:08:47;;;;;;;1.40;1.00;;;15.50;1.00;;;;;;5113792;28;20460;-70
2022/09/12 00:11:14;;;;;;;2.37;1.50;;;15.50;1.00;;;;;;5115589;28;20455;-71
2022/09/12 00:13:42;;;;;;;3.67;1.50;;;15.50;1.00;;;;;;5111768;28;20861;-71
2022/09/12 00:16:16;;;;;;;1.60;1.20;;;15.50;1.00;;;;;;5116486;28;20479;-72
2022/09/12 00:18:45;;;;;;;1.80;1.30;;;15.60;1.00;;;;;;5113415;28;20471;-72
2022/09/12 00:21:14;;;;;;;2.60;1.73;;;15.60;1.00;;;;;;5115488;28;20472;-72
2022/09/12 00:23:41;;;;;;;1.83;1.10;;;15.60;1.00;;;;;;5114883;28;20452;-71
2022/09/12 00:26:08;;;;;;;2.30;1.27;;;15.60;1.00;;;;;;5116143;28;20537;-71
2022/09/12 00:28:36;;;;;;;3.33;1.43;;;15.60;1.00;;;;;;5115201;28;20727;-71
2022/09/12 00:31:05;;;;;;;3.40;1.33;;;15.60;1.00;;;;;;5116008;28;20444;-70
2022/09/12 00:33:32;;;;;;;4.23;1.73;;;15.60;1.00;;;;;;5114322;28;20455;-70
2022/09/12 00:35:59;;;;;;;1.50;1.07;;;15.50;1.00;;;;;;5116272;28;20975;-70
2022/09/12 00:38:27;;;;;;;1.80;1.20;;;15.50;1.00;;;;;;5114136;28;20555;-71
2022/09/12 00:40:54;;;;;;;1.77;1.20;;;15.50;1.00;;;;;;5116469;28;20444;-72
2022/09/12 00:43:39;;;;;;;2.23;1.50;;;15.50;1.00;;;;;;5117999;28;20884;-71
2022/09/12 00:46:13;;;;;;;2.20;1.20;;;15.40;1.00;;;;;;5115588;28;20932;-71
2022/09/12 00:48:45;;;;;;;2.10;1.33;;;15.50;1.00;;;;;;5117801;28;20505;-71
2022/09/12 00:51:12;;;;;;;2.10;1.50;;;15.50;1.00;;;;;;5116582;28;20452;-72
2022/09/12 00:53:43;;;;;;;2.50;1.17;;;15.50;1.00;;;;;;5117102;28;20704;-72
2022/09/12 00:56:11;;;;;;;2.20;1.20;;;15.50;1.00;;;;;;5115097;28;20466;-71
2022/09/12 00:58:42;;;;;;;2.20;1.20;;;15.50;1.00;;;;;;5115971;28;20899;-72
2022/09/12 01:01:09;;;;;;;1.93;1.20;;;15.40;1.00;;;;;;5115931;28;20729;-71
2022/09/12 01:03:36;;;;;;;1.80;1.10;;;15.30;1.00;;;;;;5117454;28;20899;-71
2022/09/12 01:06:10;;;;;;;2.00;1.03;;;15.30;1.00;;;;;;5115200;28;20484;-71
2022/09/12 01:08:39;;;;;;;3.60;1.53;;;15.20;1.00;;;;;;5116803;28;20448;-72
2022/09/12 01:11:11;;;;;;;3.30;1.37;;;15.30;1.00;;;;;;5113691;28;20463;-71
2022/09/12 01:13:39;;;;;;;2.30;1.30;;;15.30;1.00;;;;;;5116230;28;20448;-71
2022/09/12 01:16:07;;;;;;;1.87;1.30;;;15.30;1.00;;;;;;5114387;28;20872;-71
2022/09/12 01:18:47;;;;;;;2.97;1.10;;;15.30;1.00;;;;;;5116822;28;20495;-71
2022/09/12 01:21:25;;;;;;;2.57;1.40;;;15.30;1.00;;;;;;5114553;28;20460;-71
2022/09/12 01:24:19;;;;;;;1.80;1.20;;;15.20;1.00;;;;;;5116366;28;20519;-71
2022/09/12 01:27:18;;;;;;;1.73;1.30;;;15.10;1.00;;;;;;5116952;28;20484;-71
2022/09/12 01:30:15;;;;;;;2.03;1.10;;;15.00;1.00;;;;;;5111455;28;20927;-71
2022/09/12 01:33:05;;;;;;;2.40;1.20;;;15.00;1.00;;;;;;5106517;28;20822;-71
2022/09/12 01:35:40;;;;;;;1.40;1.20;;;15.00;1.00;;;;;;5113290;28;20484;-71
2022/09/12 01:38:12;;;;;;;3.17;1.10;;;15.00;1.00;;;;;;5116611;28;20736;-72
2022/09/12 01:40:47;;;;;;;2.80;1.20;;;15.10;1.00;;;;;;5114690;28;20461;-72
2022/09/12 01:43:23;;;;;;;2.50;1.40;;;15.00;1.00;;;;;;5116368;28;20542;-73
2022/09/12 01:45:58;;;;;;;1.60;1.07;;;15.00;1.00;;;;;;5115202;28;20512;-73
2022/09/12 01:48:30;;;;;;;2.07;1.27;;;15.00;1.00;;;;;;5116111;28;20867;-73
2022/09/12 01:51:07;;;;;;;2.17;1.37;;;15.00;1.00;;;;;;5115585;28;20452;-72
2022/09/12 01:53:39;;;;;;;1.40;1.03;;;15.00;1.00;;;;;;5119978;28;20543;-72
2022/09/12 01:56:12;;;;;;;2.43;1.30;;;15.10;1.00;;;;;;5120344;28;20910;-72
2022/09/12 01:58:43;;;;;;;1.80;1.20;;;15.00;1.00;;;;;;5120792;28;20432;-71
2022/09/12 02:01:15;;;;;;;1.80;1.20;;;14.90;1.00;;;;;;5117611;28;20459;-72
2022/09/12 02:03:47;;;;;;;1.87;1.20;;;14.80;1.00;;;;;;5120067;28;20474;-73
2022/09/12 02:06:19;;;;;;;2.17;1.10;;;14.80;1.00;;;;;;5117779;28;20832;-73
2022/09/12 02:08:50;;;;;;;2.07;1.50;;;14.70;1.00;;;;;;5120052;28;20790;-72
2022/09/12 02:11:19;;;;;;;2.00;1.30;;;14.80;1.00;;;;;;5117840;28;20458;-73
2022/09/12 02:13:50;;;;;;;2.10;1.30;;;14.80;1.00;;;;;;5120541;28;20445;-72
2022/09/12 02:16:21;;;;;;;2.77;1.20;;;14.80;1.00;;;;;;5119172;28;20508;-72
2022/09/12 02:18:53;;;;;;;1.90;1.27;;;14.90;1.00;;;;;;5120322;28;20746;-72
2022/09/12 02:21:22;;;;;;;1.90;1.20;;;14.80;1.00;;;;;;5120108;28;20449;-71
2022/09/12 02:23:58;;;;;;;3.23;1.40;;;14.80;1.00;;;;;;5119309;28;20521;-71
2022/09/12 02:26:32;;;;;;;3.97;1.30;;;14.80;1.00;;;;;;5120311;28;20486;-71
2022/09/12 02:29:00;;;;;;;1.57;1.10;;;14.80;1.00;;;;;;5117202;28;20747;-70
2022/09/12 02:31:32;;;;;;;1.73;1.10;;;14.70;1.00;;;;;;5119521;28;20455;-72
2022/09/12 02:34:12;;;;;;;2.07;1.40;;;14.70;1.00;;;;;;5116301;28;20455;-71
2022/09/12 02:36:49;;;;;;;2.47;1.30;;;14.70;1.00;;;;;;5119343;28;20562;-70
2022/09/12 02:39:18;;;;;;;2.30;1.50;;;14.70;1.00;;;;;;5117060;28;20444;-71
2022/09/12 02:41:46;;;;;;;3.10;1.50;;;14.60;1.00;;;;;;5119134;28;20448;-70
2022/09/12 02:44:13;;;;;;;2.60;1.50;;;14.60;6.10;;;;;;5119193;28;20449;-71
2022/09/12 02:46:44;;;;;;;1.50;1.10;;;14.50;25.20;;;;;;5119531;28;20490;-71
2022/09/12 02:49:13;;;;;;;2.00;1.20;;;14.60;37.20;;;;;;5116998;28;20532;-71
2022/09/12 02:51:40;;;;;;;2.27;1.43;;;14.60;30.70;;;;;;5119548;28;20725;-71
2022/09/12 02:54:08;;;;;;;3.63;2.20;;;14.60;27.60;;;;;;5117329;28;20445;-70
2022/09/12 02:56:36;;;;;;;3.43;1.63;;;14.60;29.30;;;;;;5119608;28;20452;-71
2022/09/12 02:59:08;;;;;;;5.53;2.80;;;14.50;39.10;;;;;;5117569;28;20444;-72
2022/09/12 03:01:58;;;;;;;3.90;2.60;;;14.40;56.30;;;;;;5119174;28;20437;-72
2022/09/12 03:04:48;;;;;;;3.20;1.77;;;14.40;87.60;;;;;;5113084;28;21019;-73
2022/09/12 03:07:28;;;;;;;4.23;2.27;;;14.40;93.20;;;;;;5119711;28;20546;-72
2022/09/12 03:10:04;;;;;;;4.40;2.37;;;14.30;99.90;;;;;;5117546;28;20452;-73
2022/09/12 03:12:47;;;;;;;2.57;1.90;;;14.30;99.90;;;;;;5119722;28;20453;-72
2022/09/12 03:15:26;;;;;;;5.40;2.37;;;14.40;99.90;;;;;;5117624;28;20457;-71
2022/09/12 03:18:12;;;;;;;3.27;2.10;;;14.30;96.90;;;;;;5119166;28;20441;-72
2022/09/12 03:20:50;;;;;;;4.57;2.00;;;14.40;90.20;;;;;;5118538;28;20915;-72
2022/09/12 03:23:29;;;;;;;3.83;1.73;;;14.40;92.90;;;;;;5118271;28;20618;-72
2022/09/12 03:26:03;;;;;;;7.00;2.73;;;14.50;71.40;;;;;;5116446;28;20544;-72
2022/09/12 03:28:31;;;;;;;5.07;2.03;;;14.40;60.90;;;;;;5118919;28;20508;-71
2022/09/12 03:30:58;;;;;;;3.00;1.70;;;14.30;58.30;;;;;;5117899;28;20481;-72
2022/09/12 03:33:26;;;;;;;4.37;1.93;;;14.40;61.60;;;;;;5118505;28;20479;-72
2022/09/12 03:35:55;;;;;;;3.53;2.03;;;14.40;75.70;;;;;;5117997;28;20480;-72
2022/09/12 03:38:22;;;;;;;6.00;2.13;;;14.30;75.40;;;;;;5118711;28;20443;-72
2022/09/12 03:40:49;;;;;;;3.73;2.07;;;14.20;70.50;;;;;;5116534;28;20453;-72
2022/09/12 03:43:16;;;;;;;4.57;2.83;;;14.30;92.30;;;;;;5119141;28;20405;-72
2022/09/12 03:45:43;;;;;;;3.27;1.80;;;14.20;79.40;;;;;;5117403;28;20460;-71
2022/09/12 03:48:10;;;;;;;4.43;1.80;;;14.20;82.30;;;;;;5118184;28;20948;-71
2022/09/12 03:50:37;;;;;;;5.27;2.50;;;14.20;74.70;;;;;;5115213;28;20832;-71
2022/09/12 03:53:05;;;;;;;4.47;1.80;;;14.30;61.80;;;;;;5117865;28;20797;-71
2022/09/12 03:55:32;;;;;;;4.90;2.80;;;14.40;54.00;;;;;;5116781;28;20479;-72
2022/09/12 03:57:58;;;;;;;5.83;1.70;;;14.30;38.00;;;;;;5118203;28;20532;-71
2022/09/12 04:00:26;;;;;;;3.53;1.47;;;14.30;29.50;;;;;;5116003;27;20525;-71
2022/09/12 04:02:56;;;;;;;6.20;2.57;;;14.20;24.80;;;;;;5118011;28;20703;-71
2022/09/12 04:05:24;;;;;;;2.73;1.60;;;14.10;22.60;;;;;;5116579;28;20453;-71
2022/09/12 04:07:51;;;;;;;4.07;2.17;;;14.10;20.70;;;;;;5118001;28;20484;-72
2022/09/12 04:10:19;;;;;;;2.33;1.80;;;14.10;25.50;;;;;;5116922;28;20452;-72
2022/09/12 04:12:46;;;;;;;3.43;2.27;;;14.10;28.30;;;;;;5117491;28;20451;-72
2022/09/12 04:15:13;;;;;;;4.47;1.37;;;14.00;28.30;;;;;;5113756;28;20461;-72
2022/09/12 04:17:40;;;;;;;2.67;1.40;;;14.00;33.10;;;;;;5117203;28;20441;-72
2022/09/12 04:20:07;;;;;;;3.10;1.70;;;14.00;32.60;;;;;;5114869;27;20539;-72
2022/09/12 04:22:34;;;;;;;2.57;1.47;;;14.00;37.50;;;;;;5116576;28;20457;-71
2022/09/12 04:25:01;;;;;;;2.57;1.43;;;14.00;44.60;;;;;;5116295;28;20460;-71
2022/09/12 04:27:29;;;;;;;2.87;1.50;;;14.00;54.70;;;;;;5113256;28;20908;-71
2022/09/12 04:29:56;;;;;;;2.53;1.30;;;14.30;67.90;;;;;;5110429;28;20510;-72
2022/09/12 04:32:23;;;;;;;2.20;1.50;;;14.20;52.60;;;;;;5117211;28;20455;-71
2022/09/12 04:34:51;;;;;;;2.30;1.80;;;14.20;36.30;;;;;;5116643;28;20448;-72
2022/09/12 04:37:18;;;;;;;2.47;2.17;;;14.30;20.30;;;;;;5113950;28;20486;-71
2022/09/12 04:39:47;;;;;;;2.03;1.37;;;14.20;5.60;;;;;;5113238;28;20449;-71
2022/09/12 04:42:14;;;;;;;2.70;2.33;;;14.20;1.40;;;;;;5112036;28;20453;-71
2022/09/12 04:44:43;;;;;;;2.57;1.50;;;14.10;3.00;;;;;;5115426;28;20487;-71
2022/09/12 04:47:10;;;;;;;4.93;1.40;;;14.10;9.10;;;;;;5114122;28;20506;-72
2022/09/12 04:49:36;;;;;;;4.17;1.40;;;14.10;18.30;;;;;;5115397;28;20449;-71
2022/09/12 04:52:03;;;;;;;4.47;2.60;;;14.10;23.70;;;;;;5115568;28;20452;-70
2022/09/12 04:54:30;;;;;;;3.73;2.20;;;14.10;17.30;;;;;;5114544;28;20741;-71
2022/09/12 04:56:58;;;;;;;4.10;2.23;;;14.00;19.90;;;;;;5112913;28;20460;-71
2022/09/12 04:59:25;;;;;;;2.37;1.83;;;14.00;28.00;;;;;;5114859;28;20448;-70
2022/09/12 05:01:53;;;;;;;2.77;1.87;;;13.90;48.70;;;;;;5112430;28;20456;-70
2022/09/12 05:04:20;;;;;;;2.90;1.80;;;13.80;84.10;;;;;;5114574;28;20748;-71
2022/09/12 05:06:47;;;;;;;5.67;1.80;;;13.80;98.00;;;;;;5111184;28;20478;-71
2022/09/12 05:09:14;;;;;;;2.03;1.60;;;13.80;99.90;;;;;;5114469;28;20507;-71
2022/09/12 05:11:44;;;;;;;3.00;1.60;;;13.80;97.70;;;;;;5111681;28;20445;-70
2022/09/12 05:14:11;;;;;;;2.27;1.40;;;13.80;90.80;;;;;;5113185;28;20452;-70
2022/09/12 05:16:39;;;;;;;2.40;1.50;;;13.80;93.60;;;;;;5111165;28;20448;-72
2022/09/12 05:19:08;;;;;;;2.63;1.53;;;13.90;95.80;;;;;;5113623;28;20739;-71
2022/09/12 05:21:34;;;;;;;3.20;2.30;;;14.00;91.10;;;;;;5113517;28;20559;-70
2022/09/12 05:24:04;;;;;;;3.30;1.87;;;14.10;80.70;;;;;;5096651;28;20502;-71
2022/09/12 05:26:31;;;;;;;2.83;1.63;;;14.20;67.50;;;;;;5110455;28;21035;-70
2022/09/12 05:28:58;;;;;;;2.80;1.40;;;14.30;48.90;;;;;;5117720;28;20490;-71
2022/09/12 05:31:28;;;;;;;2.47;1.60;;;14.30;41.10;;;;;;5114355;28;20614;-71
2022/09/12 05:33:56;;;;;;;3.40;1.40;;;14.20;35.80;;;;;;5119711;28;20459;-71
2022/09/12 05:36:26;;;;;;;2.93;1.70;;;14.20;35.00;;;;;;5117196;28;20481;-72
2022/09/12 05:38:53;;;;;;;2.27;1.73;;;14.10;41.40;;;;;;5119853;28;20847;-71
2022/09/12 05:41:23;;;;;;;1.57;1.23;;;14.10;51.70;;;;;;5116833;28;20452;-73
2022/09/12 05:43:52;;;;;;;2.27;1.50;;;14.20;55.80;;;;;;5117702;28;20450;-71
2022/09/12 05:46:22;;;;;;;3.37;1.50;;;14.30;44.00;;;;;;5114697;28;20456;-71
2022/09/12 05:48:50;;;;;;;2.43;1.60;;;14.40;5.80;;;;;;5116863;28;20738;-70
2022/09/12 05:51:19;;;;;;;3.53;1.97;;;14.40;1.00;;;;;;5114125;28;20906;-71
2022/09/12 05:53:49;;;;;;;3.70;1.80;;;14.30;1.00;;;;;;5117212;28;20448;-71
2022/09/12 05:56:17;;;;;;;3.20;1.57;;;14.20;1.00;;;;;;5114049;28;20452;-71
2022/09/12 05:58:46;;;;;;;2.30;1.30;;;14.10;1.00;;;;;;5116685;28;20729;-71
2022/09/12 06:01:16;;;;;;;1.70;1.20;;;14.00;1.00;;;;;;5115617;28;20452;-71
2022/09/12 06:03:45;;;;;;;3.00;1.20;;;13.90;15.90;;;;;;5114580;28;20456;-71
2022/09/12 06:06:14;;;;;;;4.10;2.10;;;14.00;24.90;;;;;;5118886;28;20477;-70
2022/09/12 06:08:45;;;;;;;6.03;4.40;;;14.00;19.00;;;;;;5114377;28;20961;-71
2022/09/12 06:11:15;;;;;;;2.23;1.50;;;14.20;23.50;;;;;;5117559;28;20879;-72
2022/09/12 06:13:50;;;;;;;2.30;1.67;;;14.20;1.80;;;;;;5111423;28;20468;-72
2022/09/12 06:16:20;;;;;;;2.10;1.33;;;14.20;1.00;;;;;;5119794;28;20445;-71
2022/09/12 06:18:49;;;;;;;2.30;1.40;;;14.20;8.70;;;;;;5115706;28;20491;-71
2022/09/12 06:21:16;;;;;;;2.50;1.50;;;14.20;17.60;;;;;;5115858;28;21111;-71
2022/09/12 06:23:44;;;;;;;2.60;1.57;;;14.20;16.80;;;;;;5113033;28;20564;-72
2022/09/12 06:26:13;;;;;;;2.90;1.50;;;14.30;24.20;;;;;;5117211;28;20461;-71
2022/09/12 06:28:44;;;;;;;3.10;2.10;;;14.30;23.20;;;;;;5110081;27;20929;-71
2022/09/12 06:31:13;;;;;;;2.90;1.80;;;14.40;31.10;;;;;;5127980;27;20864;-71
2022/09/12 06:33:42;;;;;;;3.70;2.13;;;14.50;35.30;;;;;;5118641;27;20456;-71
2022/09/12 06:36:11;;;;;;;2.33;1.30;;;14.60;32.40;;;;;;5114852;28;20488;-71
2022/09/12 06:38:38;;;;;;;3.80;1.63;;;14.70;22.80;;;;;;5117038;28;20441;-71
2022/09/12 06:41:06;;;;;;;4.40;2.70;;;14.70;20.10;;;;;;5107412;28;20462;-71
2022/09/12 06:43:35;;;;;;;3.77;1.90;;;14.80;21.20;;;;;;5117010;28;20864;-71
2022/09/12 06:46:02;;;;;;;4.83;2.00;;;14.90;21.40;;;;;;5114426;27;20451;-73
2022/09/12 06:48:30;;;;;;;3.13;2.00;;;14.90;18.90;;;;;;5127973;27;20536;-72
2022/09/12 06:51:00;;;;;;;3.07;1.83;;;15.00;12.90;;;;;;5116372;28;20455;-70
2022/09/12 06:53:29;;;;;;;4.23;2.40;;;15.00;7.60;;;;;;5116409;28;20449;-70
2022/09/12 06:56:00;;;;;;;5.80;2.30;;;15.10;6.10;;;;;;5111675;28;20546;-70
2022/09/12 06:58:29;;;;;;;3.40;2.33;;;15.10;1.00;;;;;;5116156;28;20715;-70
2022/09/12 07:01:04;;;;;;;3.80;2.07;;;15.10;1.00;;;;;;5114015;28;20465;-72
2022/09/12 07:03:31;;;;;;;2.93;2.00;;;15.20;1.00;;;;;;5116756;28;20458;-71
2022/09/12 07:06:02;;;;;;;3.03;1.60;;;15.30;1.00;;;;;;5112442;27;20448;-72
2022/09/12 07:08:30;;;;;;;2.57;1.40;;;15.30;1.00;;;;;;5108103;28;20579;-71
2022/09/12 07:10:57;;;;;;;3.27;2.37;;;15.30;1.00;;;;;;5112911;28;20444;-71
2022/09/12 07:13:24;;;;;;;3.50;1.93;;;15.40;1.00;;;;;;5094006;28;20446;-70
2022/09/12 07:15:51;;;;;;;3.00;1.87;;;15.50;1.00;;;;;;5108483;27;20904;-71
2022/09/12 07:18:20;;;;;;;2.20;1.40;;;15.70;1.00;;;;;;5116093;28;20445;-71
2022/09/12 07:20:46;;;;;;;1.90;1.30;;;15.80;1.00;;;;;;5114267;28;20974;-72
2022/09/12 07:23:13;;;;;;;2.60;1.60;;;15.80;1.00;;;;;;5112098;28;21002;-71
2022/09/12 07:25:40;;;;;;;4.00;2.03;;;15.90;1.00;;;;;;5111455;28;20935;-71
2022/09/12 07:28:07;;;;;;;2.17;1.60;;;16.00;1.00;;;;;;5112586;28;20512;-72
2022/09/12 07:30:36;;;;;;;2.23;1.27;;;16.00;1.00;;;;;;5101555;28;20468;-72
2022/09/12 07:33:03;;;;;;;1.90;1.53;;;16.10;1.00;;;;;;5095702;28;20480;-71
2022/09/12 07:35:34;;;;;;;2.50;1.40;;;16.30;1.00;;;;;;5105418;27;20484;-72
2022/09/12 07:38:00;;;;;;;2.80;2.07;;;16.40;1.00;;;;;;5099320;28;20544;-69
2022/09/12 07:40:28;;;;;;;3.40;1.60;;;16.50;1.00;;;;;;5111330;28;20468;-70
2022/09/12 07:42:57;;;;;;;2.87;1.50;;;16.70;1.00;;;;;;5110651;28;20465;-71
2022/09/12 07:45:27;;;;;;;2.70;1.43;;;16.80;1.00;;;;;;5121944;27;20490;-71
2022/09/12 07:47:55;;;;;;;2.63;1.30;;;16.90;1.00;;;;;;5095682;28;20518;-71
2022/09/12 07:50:22;;;;;;;2.60;1.30;;;17.00;99.90;;;;;;5094619;28;20536;-71
2022/09/12 07:52:50;;;;;;;1.73;1.17;;;17.00;99.90;;;;;;5094957;27;20556;-71
2022/09/12 07:55:17;;;;;;;2.67;1.07;;;17.10;99.90;;;;;;5113190;28;20486;-72
2022/09/12 07:57:43;;;;;;;1.87;1.30;;;17.20;45.00;;;;;;5093150;28;20450;-72
2022/09/12 08:00:11;;;;;;;1.43;1.10;;;17.30;1.00;;;;;;5095961;28;20824;-72
2022/09/12 08:02:38;;;;;;;1.80;1.13;;;17.50;1.00;;;;;;5094683;28;20776;-72
2022/09/12 08:05:06;;;;;;;2.13;1.23;;;17.50;1.00;;;;;;5115090;28;20806;-72
2022/09/12 08:07:35;;;;;;;2.00;1.00;;;17.60;1.00;;;;;;5112043;28;20552;-72
2022/09/12 08:10:05;;;;;;;2.40;1.07;;;17.70;99.90;;;;;;5116656;28;20480;-73
2022/09/12 08:12:33;;;;;;;1.67;1.00;;;17.80;99.90;;;;;;5103117;27;20476;-72
2022/09/12 08:15:01;;;;;;;1.43;1.00;;;17.90;99.90;;;;;;5129849;27;20447;-72
2022/09/12 08:17:28;;;;;;;1.50;1.10;;;18.00;1.00;;;;;;5134546;27;20456;-72
2022/09/12 08:19:55;;;;;;;7.47;5.33;;;18.20;1.00;;;;;;5116682;27;20448;-70
2022/09/12 08:22:22;;;;;;;2.67;1.50;;;18.30;1.00;;;;;;5113183;27;20493;-69
2022/09/12 08:24:50;;;;;;;2.70;1.40;;;18.40;99.90;;;;;;5126770;27;20472;-71
2022/09/12 08:27:18;;;;;;;2.43;1.60;;;18.60;99.90;;;;;;5111446;28;20453;-71
2022/09/12 08:29:45;;;;;;;2.57;1.30;;;18.70;1.00;;;;;;5114806;28;20508;-71
2022/09/12 08:32:12;;;;;;;2.50;1.10;;;18.80;1.00;;;;;;5109183;28;20911;-72
2022/09/12 08:34:38;;;;;;;1.60;1.00;;;18.90;99.90;;;;;;5111278;27;20445;-71
2022/09/12 08:37:05;;;;;;;1.90;1.10;;;19.00;99.90;;;;;;5111109;28;20480;-72
2022/09/12 08:39:32;;;;;;;1.50;1.20;;;19.00;99.90;;;;;;5120410;27;20522;-72
2022/09/12 08:42:02;;;;;;;1.83;1.10;;;19.10;99.90;;;;;;5109978;27;20473;-70
2022/09/12 08:44:49;;;;;;;1.60;1.00;;;19.10;97.40;;;;;;5097149;28;20460;-70
2022/09/12 08:47:22;;;;;;;1.60;1.10;;;19.20;17.00;;;;;;5092786;27;20450;-71
2022/09/12 08:50:11;;;;;;;1.30;0.97;;;19.20;1.00;;;;;;5130921;27;20528;-70
2022/09/12 08:52:43;;;;;;;1.20;0.90;;;19.30;1.00;;;;;;5109837;27;20452;-71
2022/09/12 08:55:31;;;;;;;2.07;1.10;;;19.50;1.00;;;;;;5127682;27;20878;-72
2022/09/12 08:58:02;;;;;;;1.77;1.10;;;19.60;1.00;;;;;;5129249;27;20858;-71
2022/09/12 09:00:40;;;;;;;1.30;1.00;;;19.70;1.00;;;;;;5121047;27;20455;-71
2022/09/12 09:03:43;;;;;;;2.23;1.20;;;19.90;1.00;;;;;;5130287;27;20551;-70
2022/09/12 09:06:18;;;;;;;2.03;1.10;;;20.00;1.00;;;;;;5099773;28;20453;-70
2022/09/12 09:09:00;;;;;;;1.40;1.00;;;20.00;99.90;;;;;;5119064;27;20471;-70
2022/09/12 09:11:41;;;;;;;2.43;1.03;;;20.10;99.90;;;;;;5109926;28;20797;-70
2022/09/12 09:14:48;;;;;;;2.60;1.00;;;20.20;99.90;;;;;;5098855;28;20450;-70
2022/09/12 09:17:22;;;;;;;2.03;1.00;;;20.30;99.90;;;;;;5131649;28;20456;-71
2022/09/12 09:19:54;;;;;;;1.93;0.80;;;20.40;99.90;;;;;;5118105;28;20441;-70
2022/09/12 09:22:34;;;;;;;1.60;1.00;;;20.40;99.90;;;;;;5116864;28;20948;-71
2022/09/12 09:25:04;;;;;;;1.70;0.80;;;20.40;99.90;;;;;;5115457;28;20436;-71
2022/09/12 09:27:38;;;;;;;1.60;1.03;;;20.60;99.90;;;;;;5130719;28;20470;-71
2022/09/12 09:30:09;;;;;;;1.20;0.90;;;20.80;97.10;;;;;;5133757;28;20930;-71
2022/09/12 09:32:43;;;;;;;2.10;0.90;;;20.90;54.60;;;;;;5130394;28;20806;-70
2022/09/12 09:35:17;;;;;;;1.20;0.90;;;20.90;21.90;;;;;;5134681;28;20551;-70
2022/09/12 09:37:59;;;;;;;0.80;0.60;;;20.70;11.30;;;;;;5131416;28;20458;-71
2022/09/12 09:40:31;;;;;;;1.67;0.70;;;20.80;15.00;;;;;;5132446;28;20965;-70
2022/09/12 09:43:06;;;;;;;1.83;0.80;;;21.00;15.40;;;;;;5104473;28;20917;-71
2022/09/12 09:45:33;;;;;;;2.30;0.70;;;21.20;1.90;;;;;;5098108;28;20444;-72
2022/09/12 09:48:13;;;;;;;1.20;0.70;;;21.40;1.00;;;;;;5113150;28;20452;-70
2022/09/12 09:50:40;;;;;;;1.20;0.70;;;21.60;1.00;;;;;;5103426;28;20484;-70
2022/09/12 09:53:22;;;;;;;1.10;0.70;;;21.80;1.00;;;;;;5114314;28;20463;-70
2022/09/12 09:55:56;;;;;;;0.73;0.60;;;22.00;1.00;;;;;;5114151;28;20455;-72
2022/09/12 09:58:33;;;;;;;2.90;0.60;;;22.00;1.00;;;;;;5118592;28;20805;-71
2022/09/12 10:01:01;;;;;;;0.80;0.60;;;22.30;1.00;;;;;;5128912;28;20952;-72
2022/09/12 10:03:37;;;;;;;0.70;0.50;;;22.50;1.00;;;;;;5132676;28;20443;-72
2022/09/12 10:06:08;;;;;;;0.93;0.43;;;22.60;1.00;;;;;;5109702;28;20539;-72
2022/09/12 10:08:37;;;;;;;0.70;0.60;;;22.40;1.00;;;;;;5113618;28;20440;-70
2022/09/12 10:11:06;;;;;;;0.80;0.50;;;22.30;1.00;;;;;;5108516;28;20532;-70
2022/09/12 10:13:37;;;;;;;0.90;0.60;;;22.50;1.00;;;;;;5112290;28;20452;-70
2022/09/12 10:16:07;;;;;;;1.17;0.50;;;22.80;1.00;;;;;;5121507;27;20436;-71
2022/09/12 10:18:38;;;;;;;1.90;1.77;;;23.10;1.00;;;;;;5120731;27;20550;-70
2022/09/12 10:21:33;;;;;;;0.60;0.50;;;23.50;1.00;;;;;;5131864;27;20555;-71
2022/09/12 10:24:22;;;;;;;0.90;0.57;;;23.60;1.00;;;;;;5103500;27;20449;-71
2022/09/12 10:26:54;;;;;;;0.80;0.60;;;23.60;1.00;;;;;;5111754;27;20458;-70
2022/09/12 10:29:25;;;;;;;0.70;0.60;;;24.00;1.00;;;;;;5116133;27;20472;-70
2022/09/12 10:31:55;;;;;;;0.70;0.50;;;24.20;1.00;;;;;;5112687;28;20619;-70
2022/09/12 10:34:29;;;;;;;0.50;0.40;;;24.30;1.00;;;;;;5110097;27;20462;-71
2022/09/12 10:37:03;;;;;;;0.70;0.47;;;24.30;1.00;;;;;;5111763;28;20478;-71
2022/09/12 10:39:31;;;;;;;0.80;0.60;;;24.40;1.00;;;;;;5112441;27;21121;-71
2022/09/12 10:41:58;;;;;;;0.70;0.50;;;24.80;1.00;;;;;;5115445;28;20460;-70
2022/09/12 10:44:28;;;;;;;0.90;0.50;;;24.90;1.00;;;;;;5100734;28;20465;-71
2022/09/12 10:46:55;;;;;;;0.97;0.50;;;25.10;1.00;;;;;;5116800;28;20487;-71
2022/09/12 10:49:30;;;;;;;0.63;0.50;;;25.30;1.00;;;;;;5114133;27;20480;-71
2022/09/12 10:51:59;;;;;;;0.50;0.30;;;25.40;1.00;;;;;;5112059;27;20461;-71
2022/09/12 10:54:28;;;;;;;0.70;0.40;;;25.70;1.00;;;;;;5118485;27;20460;-72
2022/09/12 10:57:18;;;;;;;0.63;0.40;;;25.90;1.00;;;;;;5115465;28;20468;-71
2022/09/12 11:00:08;;;;;;;0.50;0.40;;;26.10;1.00;;;;;;5110003;27;20460;-71
2022/09/12 11:02:55;;;;;;;1.90;0.50;;;26.10;1.00;;;;;;5131302;27;20444;-72
2022/09/12 11:05:37;;;;;;;0.60;0.40;;;26.00;1.00;;;;;;5131071;27;20547;-71
2022/09/12 11:08:13;;;;;;;0.70;0.60;;;26.00;1.00;;;;;;5115238;28;20830;-72
2022/09/12 11:10:53;;;;;;;0.60;0.40;;;25.90;1.00;;;;;;5117946;28;20487;-71
2022/09/12 11:13:33;;;;;;;0.50;0.40;;;25.80;1.00;;;;;;5113314;28;20510;-72
2022/09/12 11:16:10;;;;;;;0.63;0.43;;;25.60;1.00;;;;;;5117485;28;20460;-71
2022/09/12 11:19:02;;;;;;;0.70;0.40;;;25.20;1.00;;;;;;5120625;27;20550;-72
2022/09/12 11:21:48;;;;;;;0.67;0.50;;;25.30;1.00;;;;;;5130715;27;20504;-72
2022/09/12 11:24:37;;;;;;;0.60;0.40;;;25.10;1.00;;;;;;5134803;27;20458;-71
2022/09/12 11:27:26;;;;;;;0.93;0.40;;;25.40;1.00;;;;;;5118163;27;20443;-72
2022/09/12 11:29:58;;;;;;;0.67;0.37;;;25.60;1.00;;;;;;5123553;27;20502;-71
2022/09/12 11:33:05;;;;;;;0.70;0.40;;;25.70;1.00;;;;;;5131689;27;20452;-71
2022/09/12 11:35:35;;;;;;;0.60;0.40;;;25.60;1.00;;;;;;5100443;28;20500;-70
2022/09/12 11:38:34;;;;;;;0.50;0.30;;;25.60;1.00;;;;;;5097497;28;20450;-70
2022/09/12 11:41:07;;;;;;;0.40;0.30;;;25.70;1.00;;;;;;5095084;28;20441;-72
2022/09/12 11:43:38;;;;;;;0.50;0.33;;;25.60;1.00;;;;;;5086754;28;20557;-71
2022/09/12 11:46:14;;;;;;;0.60;0.40;;;25.50;1.00;;;;;;5087411;28;20449;-73
2022/09/12 11:48:47;;;;;;;0.60;0.40;;;25.80;1.00;;;;;;5114988;28;20940;-71
2022/09/12 11:51:19;;;;;;;1.20;0.30;;;25.50;1.00;;;;;;5114164;28;20935;-73
2022/09/12 11:53:57;;;;;;;0.90;0.37;;;25.80;1.00;;;;;;5072273;28;20454;-74
2022/09/12 11:56:25;;;;;;;0.50;0.37;;;26.00;1.00;;;;;;5079697;28;20488;-73
2022/09/12 11:58:58;;;;;;;0.57;0.40;;;26.40;1.00;;;;;;5108858;28;21101;-73
2022/09/12 12:01:31;;;;;;;0.60;0.40;;;26.60;1.00;;;;;;5110275;28;20869;-73
2022/09/12 12:04:06;;;;;;;0.50;0.30;;;26.60;1.00;;;;;;5111780;28;20870;-71
2022/09/12 12:06:45;;;;;;;0.50;0.30;;;26.20;1.00;;;;;;5099989;28;20926;-71
2022/09/12 12:09:25;;;;;;;0.40;0.20;;;25.90;1.00;;;;;;5103036;28;20495;-73
2022/09/12 12:11:56;;;;;;;0.50;0.33;;;26.00;1.00;;;;;;5108867;28;20456;-72
2022/09/12 12:14:29;;;;;;;0.50;0.30;;;26.50;1.00;;;;;;5114631;28;20437;-73
2022/09/12 12:16:56;;;;;;;1.00;0.30;;;26.90;1.00;;;;;;5083578;28;20452;-73
2022/09/12 12:19:32;;;;;;;0.80;0.37;;;26.90;1.00;;;;;;5085160;28;20945;-72
2022/09/12 12:22:07;;;;;;;0.50;0.30;;;26.90;1.00;;;;;;5108686;28;20462;-73
2022/09/12 12:24:59;;;;;;;0.60;0.40;;;26.80;1.00;;;;;;5112623;28;20501;-71
2022/09/12 12:27:46;;;;;;;0.60;0.40;;;26.90;1.00;;;;;;5116675;28;21074;-72
2022/09/12 12:30:58;;;;;;;0.77;0.40;;;27.00;1.00;;;;;;5115076;28;20949;-72
2022/09/12 12:34:04;;;;;;;0.50;0.30;;;27.00;1.00;;;;;;5056826;28;20440;-72
2022/09/12 12:36:42;;;;;;;0.80;0.30;;;26.90;1.00;;;;;;5095333;28;20469;-71
2022/09/12 12:39:49;;;;;;;0.60;0.40;;;27.10;1.00;;;;;;5097824;28;20520;-72
2022/09/12 12:43:02;;;;;;;1.43;0.40;;;27.40;1.00;;;;;;5090535;28;20536;-71
2022/09/12 12:46:11;;;;;;;5.03;0.40;;;27.30;1.00;;;;;;5090291;28;20726;-71
2022/09/12 12:48:53;;;;;;;1.23;0.40;;;27.20;1.00;;;;;;5093757;28;21050;-72
2022/09/12 12:51:41;;;;;;;0.50;0.30;;;26.90;1.00;;;;;;5091966;28;20485;-73
2022/09/12 12:54:27;;;;;;;2.23;0.40;;;26.90;1.00;;;;;;5095296;28;20449;-72
2022/09/12 12:57:04;;;;;;;1.10;0.43;;;26.70;1.00;;;;;;5090137;28;20445;-72
2022/09/12 12:59:32;;;;;;;0.40;0.33;;;26.70;1.00;;;;;;5095117;28;20732;-71
2022/09/12 13:02:00;;;;;;;0.73;0.50;;;26.50;1.00;;;;;;5094039;28;20453;-71
2022/09/12 13:04:29;;;;;;;0.87;0.50;;;26.20;1.00;;;;;;5093536;28;20452;-71
2022/09/12 13:07:01;;;;;;;2.30;1.90;;;26.30;1.00;;;;;;5092221;28;20970;-71
2022/09/12 13:09:32;;;;;;;0.47;0.30;;;26.10;1.00;;;;;;5093436;28;20441;-71
2022/09/12 13:12:04;;;;;;;0.50;0.30;;;26.10;1.00;;;;;;5091715;28;20454;-71
2022/09/12 13:14:37;;;;;;;0.70;0.40;;;26.30;1.00;;;;;;5094570;28;20488;-71
2022/09/12 13:17:07;;;;;;;0.50;0.40;;;26.50;1.00;;;;;;5092689;28;20873;-71
2022/09/12 13:19:37;;;;;;;0.50;0.37;;;26.20;1.00;;;;;;5094394;28;20468;-71
2022/09/12 13:22:06;;;;;;;0.50;0.30;;;26.00;1.00;;;;;;5091806;28;20457;-70